Аэропорт: Омск-Центральный. Омск

ICAO: UNOO

METAR:
2022-01-28 09:00:00
UNOO 280900Z 13001MPS 6000 BKN024 M13/M15 Q1026 R25/450245 NOSIG RMK QFE761
METAR:
2022-01-28 07:55:00
TAF UNOO 280755Z 2809/2909 14003MPS 6000 SCT010 TEMPO 2812/2818 1400 SN BR FU BKN004 TEMPO 2818/2906 0500 FZFG FU VV002